createdAt,value
2019-03-22T00:01:35.793Z,14.57
2019-03-22T00:04:08.658Z,28.90
2019-03-22T00:06:38.853Z,17.40
2019-03-22T00:09:09.005Z,15.23
2019-03-22T00:11:39.507Z,13.50
2019-03-22T00:14:09.493Z,13.93
2019-03-22T00:16:40.058Z,16.97
2019-03-22T00:19:10.206Z,11.93
2019-03-22T00:21:40.212Z,14.30
2019-03-22T00:24:10.209Z,15.23
2019-03-22T00:26:40.257Z,16.03
2019-03-22T00:29:10.360Z,16.73
2019-03-22T00:31:40.374Z,14.17
2019-03-22T00:34:10.843Z,15.40
2019-03-22T00:36:47.306Z,14.67
2019-03-22T00:39:18.024Z,12.83
2019-03-22T00:41:48.102Z,13.73
2019-03-22T00:44:18.512Z,17.03
2019-03-22T00:46:48.460Z,17.27
2019-03-22T00:49:18.549Z,15.10
2019-03-22T00:51:48.510Z,13.73
2019-03-22T00:54:18.605Z,13.90
2019-03-22T00:56:48.595Z,15.87
2019-03-22T00:59:20.635Z,16.27
2019-03-22T01:01:51.063Z,14.03
2019-03-22T01:04:21.070Z,16.40
2019-03-22T01:06:51.171Z,17.77
2019-03-22T01:09:21.454Z,14.07
2019-03-22T01:11:51.468Z,17.60
2019-03-22T01:14:21.442Z,18.93
2019-03-22T01:16:51.754Z,17.93
2019-03-22T01:19:21.839Z,17.17
2019-03-22T01:21:51.976Z,17.43
2019-03-22T01:24:23.233Z,17.10
2019-03-22T01:26:55.487Z,21.17
2019-03-22T01:29:25.495Z,25.90
2019-03-22T01:31:55.963Z,15.33
2019-03-22T01:34:26.178Z,20.60
2019-03-22T01:36:58.521Z,17.50
2019-03-22T01:39:28.653Z,16.80
2019-03-22T01:41:58.672Z,18.90
2019-03-22T01:44:28.680Z,18.43
2019-03-22T01:46:58.726Z,17.67
2019-03-22T01:49:28.755Z,17.87
2019-03-22T01:51:58.911Z,20.00
2019-03-22T01:54:28.981Z,16.70
2019-03-22T01:56:59.126Z,19.40
2019-03-22T01:59:32.594Z,14.47
2019-03-22T02:02:02.619Z,16.20
2019-03-22T02:04:32.618Z,18.00
2019-03-22T02:07:02.652Z,19.67
2019-03-22T02:09:33.270Z,17.37
2019-03-22T02:12:03.684Z,18.67
2019-03-22T02:14:34.293Z,13.00
2019-03-22T02:17:04.749Z,17.93
2019-03-22T02:19:34.913Z,18.90
2019-03-22T02:22:05.028Z,20.30
2019-03-22T02:24:36.495Z,17.27
2019-03-22T02:27:07.737Z,18.60
2019-03-22T02:29:37.649Z,18.50
2019-03-22T02:32:09.735Z,20.03
2019-03-22T02:34:39.785Z,17.67
2019-03-22T02:37:09.866Z,16.10
2019-03-22T02:39:40.749Z,19.80
2019-03-22T02:42:11.447Z,17.53
2019-03-22T02:44:44.763Z,15.77
2019-03-22T02:47:14.904Z,19.70
2019-03-22T02:49:45.093Z,36.00
2019-03-22T02:52:15.106Z,37.03
2019-03-22T02:54:45.361Z,18.33
2019-03-22T02:57:16.103Z,17.23
2019-03-22T02:59:46.328Z,16.23
2019-03-22T03:02:23.357Z,27.53
2019-03-22T03:04:54.731Z,19.07
2019-03-22T03:07:25.024Z,24.13
2019-03-22T03:09:55.179Z,21.73
2019-03-22T03:12:25.402Z,17.73
2019-03-22T03:14:55.475Z,21.83
2019-03-22T03:17:25.431Z,17.97
2019-03-22T03:19:55.516Z,19.67
2019-03-22T03:22:25.581Z,19.03
2019-03-22T03:24:55.533Z,16.70
2019-03-22T03:27:25.582Z,17.97
2019-03-22T03:29:55.644Z,19.63
2019-03-22T03:32:25.720Z,16.47
2019-03-22T03:34:55.702Z,19.33
2019-03-22T03:37:25.759Z,21.27
2019-03-22T03:39:56.512Z,19.03
2019-03-22T03:42:26.712Z,17.97
2019-03-22T03:44:56.802Z,20.20
2019-03-22T03:47:26.687Z,17.23
2019-03-22T03:49:56.773Z,16.73
2019-03-22T03:52:27.161Z,20.27
2019-03-22T03:54:57.453Z,16.30
2019-03-22T03:57:27.630Z,19.87
2019-03-22T03:59:57.622Z,21.83
2019-03-22T04:02:27.705Z,20.83
2019-03-22T04:04:58.749Z,19.33
2019-03-22T04:07:28.791Z,19.17
2019-03-22T04:09:59.075Z,21.70
2019-03-22T04:12:29.144Z,17.33
2019-03-22T04:14:59.199Z,23.10
2019-03-22T04:17:29.283Z,23.43
2019-03-22T04:19:59.386Z,20.33
2019-03-22T04:22:29.777Z,21.27
2019-03-22T04:24:59.812Z,26.10
2019-03-22T04:27:29.931Z,21.63
2019-03-22T04:30:00.807Z,21.43
2019-03-22T04:32:31.071Z,20.30
2019-03-22T04:35:01.373Z,22.73
2019-03-22T04:37:31.630Z,22.23
2019-03-22T04:40:01.689Z,20.63
2019-03-22T04:42:32.723Z,27.63
2019-03-22T04:45:03.012Z,24.37
2019-03-22T04:47:53.596Z,25.07
2019-03-22T04:50:24.741Z,24.10
2019-03-22T04:52:55.597Z,26.47
2019-03-22T04:55:26.026Z,27.70
2019-03-22T04:57:57.062Z,32.00
2019-03-22T05:00:27.690Z,27.13
2019-03-22T05:02:59.093Z,29.30
2019-03-22T05:05:29.761Z,44.23
2019-03-22T05:08:01.251Z,24.40
2019-03-22T05:10:33.108Z,29.07
2019-03-22T05:13:04.261Z,31.50
2019-03-22T05:15:35.049Z,48.57
2019-03-22T05:18:05.806Z,29.13
2019-03-22T05:20:37.714Z,27.97
2019-03-22T05:23:08.509Z,42.50
2019-03-22T05:25:39.504Z,32.37
2019-03-22T05:28:11.946Z,36.63
2019-03-22T05:31:49.822Z,35.70
2019-03-22T05:34:20.400Z,29.93
2019-03-22T05:36:51.325Z,27.33
2019-03-22T05:39:21.283Z,32.33
2019-03-22T05:41:51.840Z,30.57
2019-03-22T05:44:23.803Z,35.17
2019-03-22T05:46:54.112Z,32.60
2019-03-22T05:49:25.575Z,36.20
2019-03-22T05:51:55.883Z,38.97
2019-03-22T05:54:25.885Z,43.47
2019-03-22T05:56:56.279Z,33.83
2019-03-22T05:59:26.273Z,36.80
2019-03-22T06:01:56.852Z,35.17
2019-03-22T06:04:27.379Z,32.93
2019-03-22T06:06:57.515Z,53.23
2019-03-22T06:09:28.202Z,47.33
2019-03-22T06:11:59.015Z,35.43
2019-03-22T06:14:29.270Z,44.30
2019-03-22T06:16:59.301Z,37.23
2019-03-22T06:19:29.958Z,42.83
2019-03-22T06:22:00.514Z,36.60
2019-03-22T06:24:30.542Z,32.30
2019-03-22T06:27:02.766Z,38.17
2019-03-22T06:29:33.286Z,48.53
2019-03-22T06:32:03.245Z,53.00
2019-03-22T06:34:35.195Z,37.73
2019-03-22T06:37:05.628Z,36.47
2019-03-22T06:39:36.108Z,36.77
2019-03-22T06:42:06.244Z,34.53
2019-03-22T06:44:36.589Z,30.97
2019-03-22T06:47:07.069Z,41.27
2019-03-22T06:49:37.575Z,45.77
2019-03-22T06:52:07.880Z,42.60
2019-03-22T06:54:40.489Z,50.97
2019-03-22T06:57:19.370Z,37.73
2019-03-22T07:00:05.485Z,40.23
2019-03-22T07:02:53.234Z,64.60
2019-03-22T07:05:23.308Z,36.30
2019-03-22T07:07:53.305Z,38.90
2019-03-22T07:10:23.650Z,31.30
2019-03-22T07:12:54.239Z,43.97
2019-03-22T07:15:24.833Z,41.60
2019-03-22T07:17:54.853Z,49.97
2019-03-22T07:20:26.930Z,41.47
2019-03-22T07:22:57.216Z,54.37
2019-03-22T07:25:27.587Z,49.53
2019-03-22T07:27:57.910Z,46.50
2019-03-22T07:30:28.612Z,52.57
2019-03-22T07:32:58.929Z,41.80
2019-03-22T07:35:29.712Z,50.90
2019-03-22T07:38:00.204Z,42.03
2019-03-22T07:40:30.493Z,51.00
2019-03-22T07:43:01.113Z,46.93
2019-03-22T07:45:31.530Z,49.37
2019-03-22T07:48:01.878Z,36.93
2019-03-22T07:50:32.544Z,57.37
2019-03-22T07:53:03.063Z,49.83
2019-03-22T07:55:33.116Z,55.70
2019-03-22T07:58:03.550Z,48.83
2019-03-22T08:00:33.735Z,69.17
2019-03-22T08:03:04.093Z,53.80
2019-03-22T08:05:34.212Z,62.90
2019-03-22T08:08:04.703Z,52.60
2019-03-22T08:10:35.123Z,46.57
2019-03-22T08:13:05.195Z,35.33
2019-03-22T08:15:43.668Z,49.60
2019-03-22T08:18:16.923Z,47.20
2019-03-22T08:20:47.671Z,48.37
2019-03-22T08:23:22.375Z,62.60
2019-03-22T08:25:53.201Z,50.10
2019-03-22T08:28:23.483Z,63.60
2019-03-22T08:30:54.051Z,55.90
2019-03-22T08:33:25.655Z,53.03
2019-03-22T08:35:55.782Z,56.00
2019-03-22T08:38:26.343Z,47.67
2019-03-22T08:40:57.403Z,49.80
2019-03-22T08:43:28.167Z,46.50
2019-03-22T08:45:58.563Z,45.23
2019-03-22T08:48:28.692Z,40.83
2019-03-22T08:50:59.322Z,36.33
2019-03-22T08:53:29.568Z,36.43
2019-03-22T08:55:59.690Z,40.90
2019-03-22T08:58:30.741Z,40.73
2019-03-22T09:01:01.325Z,37.90
2019-03-22T09:03:31.320Z,38.67
2019-03-22T09:06:01.868Z,37.40
2019-03-22T09:08:31.889Z,43.87
2019-03-22T09:11:01.911Z,35.53
2019-03-22T09:13:32.293Z,34.27
2019-03-22T09:16:02.946Z,32.53
2019-03-22T09:18:33.066Z,34.27
2019-03-22T09:21:03.528Z,44.53
2019-03-22T09:23:33.531Z,28.93
2019-03-22T09:26:03.863Z,31.17
2019-03-22T09:28:34.157Z,31.17
2019-03-22T09:31:10.266Z,32.47
2019-03-22T09:33:36.884Z,29.40
2019-03-22T09:36:07.708Z,32.00
2019-03-22T09:38:38.988Z,31.93
2019-03-22T09:41:10.179Z,28.57
2019-03-22T09:43:40.386Z,39.67
2019-03-22T09:46:10.975Z,35.17
2019-03-22T09:48:41.355Z,30.60
2019-03-22T09:51:11.625Z,26.43
2019-03-22T09:53:41.634Z,29.60
2019-03-22T09:56:12.035Z,27.47
2019-03-22T09:58:42.062Z,31.10
2019-03-22T10:01:23.219Z,23.87
2019-03-22T10:03:43.760Z,22.23
2019-03-22T10:06:16.297Z,26.03
2019-03-22T10:08:47.174Z,24.03
2019-03-22T10:11:18.147Z,30.20
2019-03-22T10:13:48.950Z,22.90
2019-03-22T10:16:19.215Z,28.23
2019-03-22T10:18:50.188Z,24.40
2019-03-22T10:21:23.951Z,24.33
2019-03-22T10:23:54.426Z,28.70
2019-03-22T10:26:24.875Z,29.57
2019-03-22T10:28:55.594Z,43.47
2019-03-22T10:31:36.373Z,17.93
2019-03-22T10:33:57.874Z,25.67
2019-03-22T10:36:28.605Z,19.60
2019-03-22T10:38:58.775Z,18.47
2019-03-22T10:41:29.239Z,19.53
2019-03-22T10:44:00.264Z,16.47
2019-03-22T10:46:30.769Z,24.47
2019-03-22T10:49:43.564Z,18.13
2019-03-22T10:52:24.692Z,20.43
2019-03-22T10:55:30.194Z,20.27
2019-03-22T10:57:59.084Z,18.73
2019-03-22T11:00:29.228Z,22.27
2019-03-22T11:02:59.286Z,15.73
2019-03-22T11:05:29.371Z,18.63
2019-03-22T11:07:59.635Z,27.67
2019-03-22T11:10:29.720Z,21.00
2019-03-22T11:13:00.317Z,21.03
2019-03-22T11:15:30.879Z,24.60
2019-03-22T11:18:01.242Z,23.33
2019-03-22T11:20:31.317Z,19.60
2019-03-22T11:23:01.649Z,18.87
2019-03-22T11:25:31.707Z,23.50
2019-03-22T11:28:02.005Z,15.83
2019-03-22T11:30:32.040Z,24.37
2019-03-22T11:33:02.157Z,36.30
2019-03-22T11:35:32.850Z,17.57
2019-03-22T11:38:03.338Z,17.83
2019-03-22T11:40:34.674Z,16.27
2019-03-22T11:43:08.946Z,17.13
2019-03-22T11:45:36.948Z,13.57
2019-03-22T11:48:07.181Z,19.37
2019-03-22T11:50:37.912Z,15.17
2019-03-22T11:53:08.427Z,31.20
2019-03-22T11:55:38.588Z,29.17
2019-03-22T11:58:08.880Z,16.03
2019-03-22T12:00:39.233Z,13.80
2019-03-22T12:03:09.178Z,18.77
2019-03-22T12:05:40.634Z,15.43
2019-03-22T12:08:11.551Z,10.80
2019-03-22T12:10:41.623Z,14.10
2019-03-22T12:16:41.100Z,17.50
2019-03-22T12:19:11.422Z,12.93
2019-03-22T12:21:41.763Z,17.43
2019-03-22T12:24:12.546Z,26.80
2019-03-22T12:26:42.558Z,17.47
2019-03-22T12:29:12.587Z,14.20
2019-03-22T12:31:43.448Z,11.83
2019-03-22T12:34:13.660Z,26.00
2019-03-22T12:36:43.626Z,9.33
2019-03-22T12:39:13.691Z,9.43
2019-03-22T12:41:43.698Z,15.80
2019-03-22T12:44:14.914Z,10.40
2019-03-22T12:47:11.911Z,10.38
2019-03-22T12:49:49.798Z,9.80
2019-03-22T12:52:20.380Z,12.88
2019-03-22T12:54:50.289Z,8.33
2019-03-22T12:57:20.737Z,8.73
2019-03-22T12:59:51.311Z,11.78
2019-03-22T13:02:21.627Z,8.90
2019-03-22T13:04:51.644Z,13.08
2019-03-22T13:07:21.975Z,12.33
2019-03-22T13:09:52.206Z,11.78
2019-03-22T13:12:22.491Z,6.45
2019-03-22T13:14:52.672Z,10.65
2019-03-22T13:17:23.146Z,8.60
2019-03-22T13:19:53.189Z,6.17
2019-03-22T13:22:23.801Z,7.53
2019-03-22T13:24:54.155Z,6.35
2019-03-22T13:27:24.169Z,9.50
2019-03-22T13:29:54.930Z,7.87
2019-03-22T13:32:26.802Z,7.83
2019-03-22T13:35:00.627Z,6.30
2019-03-22T13:37:31.310Z,6.20
2019-03-22T13:40:02.011Z,6.83
2019-03-22T13:42:32.009Z,5.58
2019-03-22T13:45:02.390Z,8.88
2019-03-22T13:47:32.392Z,7.92
2019-03-22T13:50:02.997Z,5.97
2019-03-22T13:52:33.234Z,5.22
2019-03-22T13:55:03.888Z,6.75
2019-03-22T13:57:34.510Z,5.35
2019-03-22T14:00:55.663Z,3.62
2019-03-22T14:03:25.744Z,5.60
2019-03-22T14:05:56.051Z,11.60
2019-03-22T14:08:27.119Z,3.70
2019-03-22T14:10:57.352Z,5.90
2019-03-22T14:13:27.767Z,3.40
2019-03-22T14:15:58.090Z,3.95
2019-03-22T14:18:28.093Z,6.12
2019-03-22T14:21:29.414Z,4.05
2019-03-22T14:23:59.392Z,6.30
2019-03-22T14:26:29.690Z,3.75
2019-03-22T14:29:17.638Z,3.20
2019-03-22T14:31:48.588Z,6.42
2019-03-22T14:34:18.935Z,3.22
2019-03-22T14:36:51.605Z,3.40
2019-03-22T14:39:23.272Z,2.98
2019-03-22T14:42:00.495Z,3.87
2019-03-22T14:44:30.723Z,4.53
2019-03-22T14:47:01.240Z,3.40
2019-03-22T14:49:33.766Z,4.83
2019-03-22T14:52:06.641Z,8.73
2019-03-22T14:54:37.627Z,3.92
2019-03-22T14:57:09.006Z,4.30
2019-03-22T14:59:43.538Z,3.10
2019-03-22T15:02:13.802Z,5.22
2019-03-22T15:08:28.804Z,5.75
2019-03-22T15:14:45.412Z,14.10
2019-03-22T15:17:40.636Z,14.20
2019-03-22T15:20:29.000Z,5.95
2019-03-22T15:23:30.269Z,4.15
2019-03-22T15:26:24.462Z,10.38
2019-03-22T15:29:30.218Z,4.90
2019-03-22T15:32:15.145Z,6.42
2019-03-22T15:35:10.989Z,6.53
2019-03-22T15:41:40.217Z,4.17
2019-03-22T15:44:13.604Z,7.47
2019-03-22T15:46:44.179Z,5.08
2019-03-22T15:49:14.572Z,7.15
2019-03-22T15:51:45.374Z,6.00
2019-03-22T15:54:15.387Z,4.12
2019-03-22T15:56:47.328Z,5.00
2019-03-22T15:59:17.413Z,6.95
2019-03-22T16:01:47.720Z,6.25
2019-03-22T16:04:18.823Z,9.05
2019-03-22T16:06:49.111Z,6.92
2019-03-22T16:09:19.475Z,4.15
2019-03-22T16:11:50.175Z,4.58
2019-03-22T16:14:20.748Z,4.55
2019-03-22T16:16:51.155Z,4.62
2019-03-22T16:19:21.232Z,4.35
2019-03-22T16:21:51.462Z,5.85
2019-03-22T16:24:25.161Z,4.42
2019-03-22T16:26:56.030Z,6.58
2019-03-22T16:29:26.435Z,4.60
2019-03-22T16:31:57.674Z,13.83
2019-03-22T16:34:28.365Z,5.03
2019-03-22T16:36:58.869Z,5.15
2019-03-22T16:39:30.451Z,6.30
2019-03-22T16:42:00.945Z,6.67
2019-03-22T16:44:31.851Z,7.25
2019-03-22T16:47:02.631Z,5.75
2019-03-22T16:49:32.805Z,9.28
2019-03-22T16:52:03.206Z,6.23
2019-03-22T16:54:33.685Z,6.67
2019-03-22T16:57:07.117Z,6.65
2019-03-22T16:59:38.458Z,8.18
2019-03-22T17:02:09.465Z,9.60
2019-03-22T17:04:47.449Z,9.90
2019-03-22T17:07:20.431Z,5.47
2019-03-22T17:09:51.879Z,5.90
2019-03-22T17:12:24.523Z,9.53
2019-03-22T17:14:55.244Z,9.50
2019-03-22T17:17:25.610Z,8.90
2019-03-22T17:19:55.788Z,8.67
2019-03-22T17:22:26.762Z,8.03
2019-03-22T17:24:58.361Z,9.07
2019-03-22T17:27:28.689Z,8.80
2019-03-22T17:29:58.689Z,9.23
2019-03-22T17:32:30.208Z,8.47
2019-03-22T17:35:01.104Z,10.23
2019-03-22T17:37:31.614Z,9.87
2019-03-22T17:40:04.298Z,13.67
2019-03-22T17:42:38.023Z,12.47
2019-03-22T17:45:09.017Z,11.60
2019-03-22T17:47:39.699Z,10.77
2019-03-22T17:50:10.651Z,9.67
2019-03-22T17:52:41.476Z,10.07
2019-03-22T17:55:12.366Z,10.63
2019-03-22T17:57:42.721Z,9.03
2019-03-22T18:00:31.168Z,9.63
2019-03-22T18:03:01.546Z,10.93
2019-03-22T18:05:37.878Z,8.83
2019-03-22T18:08:08.225Z,8.03
2019-03-22T18:10:38.767Z,8.50
2019-03-22T18:13:08.837Z,8.17
2019-03-22T18:15:39.137Z,7.60
2019-03-22T18:18:09.897Z,9.07
2019-03-22T18:20:40.202Z,9.67
2019-03-22T18:23:11.870Z,13.37
2019-03-22T18:25:41.877Z,13.03
2019-03-22T18:28:12.147Z,15.73
2019-03-22T18:30:42.959Z,12.37
2019-03-22T18:33:13.630Z,13.97
2019-03-22T18:35:50.144Z,13.47
2019-03-22T18:38:20.436Z,14.87
2019-03-22T18:40:51.027Z,15.53
2019-03-22T18:43:21.119Z,14.83
2019-03-22T18:45:53.417Z,13.77
2019-03-22T18:48:24.188Z,13.77
2019-03-22T18:50:57.009Z,15.93
2019-03-22T18:53:26.656Z,16.10
2019-03-22T18:56:04.277Z,15.13
2019-03-22T18:58:34.870Z,13.50
2019-03-22T19:01:05.385Z,15.03
2019-03-22T19:03:36.785Z,12.40
2019-03-22T19:06:08.061Z,13.47
2019-03-22T19:08:38.198Z,12.27
2019-03-22T19:11:09.468Z,9.97
2019-03-22T19:13:39.763Z,12.27
2019-03-22T19:16:10.820Z,11.53
2019-03-22T19:18:41.019Z,11.67
2019-03-22T19:21:11.687Z,12.00
2019-03-22T19:23:43.896Z,11.90
2019-03-22T19:26:16.129Z,11.77
2019-03-22T19:28:47.817Z,11.50
2019-03-22T19:31:23.084Z,11.60
2019-03-22T19:33:55.263Z,12.53
2019-03-22T19:36:25.424Z,11.90
2019-03-22T19:38:55.741Z,10.20
2019-03-22T19:41:26.645Z,9.10
2019-03-22T19:43:56.906Z,12.47
2019-03-22T19:46:28.627Z,12.00
2019-03-22T19:49:01.462Z,9.33
2019-03-22T19:52:09.813Z,9.73
2019-03-22T19:54:40.679Z,9.20
2019-03-22T19:57:11.283Z,9.83
2019-03-22T19:59:41.855Z,9.07
2019-03-22T20:02:12.365Z,8.50
2019-03-22T20:04:42.484Z,14.43
2019-03-22T20:07:12.588Z,13.63
2019-03-22T20:09:43.598Z,11.07
2019-03-22T20:12:15.775Z,14.00
2019-03-22T20:14:46.131Z,13.50
2019-03-22T20:17:16.151Z,9.70
2019-03-22T20:19:47.637Z,8.97
2019-03-22T20:22:18.647Z,10.07
2019-03-22T20:24:49.652Z,12.93
2019-03-22T20:27:20.377Z,11.43
2019-03-22T20:29:50.819Z,9.30
2019-03-22T20:32:20.845Z,9.87
2019-03-22T20:34:51.285Z,9.83
2019-03-22T20:37:21.805Z,8.83
2019-03-22T20:39:51.779Z,12.33
2019-03-22T20:42:22.194Z,12.27
2019-03-22T20:44:52.417Z,10.37
2019-03-22T20:47:22.579Z,10.93
2019-03-22T20:49:53.856Z,9.93
2019-03-22T20:52:24.721Z,10.00
2019-03-22T20:54:56.041Z,10.27
2019-03-22T20:57:32.443Z,6.80
2019-03-22T21:00:02.481Z,9.37
2019-03-22T21:02:32.515Z,8.97
2019-03-22T21:05:03.181Z,7.23
2019-03-22T21:07:33.336Z,8.57
2019-03-22T21:10:03.959Z,9.10
2019-03-22T21:12:40.352Z,11.77
2019-03-22T21:15:11.093Z,10.17
2019-03-22T21:17:43.253Z,8.63
2019-03-22T21:20:13.764Z,9.40
2019-03-22T21:22:44.402Z,7.37
2019-03-22T21:25:14.592Z,7.20
2019-03-22T21:27:44.942Z,9.20
2019-03-22T21:30:14.973Z,11.20
2019-03-22T21:32:52.320Z,7.43
2019-03-22T21:35:23.188Z,9.10
2019-03-22T21:38:10.786Z,9.50
2019-03-22T21:40:53.495Z,7.53
2019-03-22T21:43:22.103Z,8.20
2019-03-22T21:45:54.014Z,8.20
2019-03-22T21:48:24.682Z,8.40
2019-03-22T21:50:56.122Z,7.27
2019-03-22T21:53:26.682Z,8.17
2019-03-22T21:55:57.275Z,9.27
2019-03-22T21:58:27.533Z,9.07
2019-03-22T22:00:57.711Z,9.70
2019-03-22T22:03:28.484Z,8.80
2019-03-22T22:05:58.897Z,7.60
2019-03-22T22:08:30.349Z,8.57
2019-03-22T22:11:00.369Z,7.00
2019-03-22T22:13:31.061Z,7.50
2019-03-22T22:16:01.112Z,10.83
2019-03-22T22:18:31.188Z,8.23
2019-03-22T22:21:01.815Z,6.57
2019-03-22T22:23:31.923Z,9.00
2019-03-22T22:26:02.196Z,6.03
2019-03-22T22:28:32.227Z,7.00
2019-03-22T22:31:02.763Z,7.37
2019-03-22T22:33:33.089Z,11.17
2019-03-22T22:36:03.070Z,6.73
2019-03-22T22:38:33.795Z,7.50
2019-03-22T22:41:03.818Z,9.80
2019-03-22T22:43:45.287Z,8.53
2019-03-22T22:46:15.799Z,9.27
2019-03-22T22:48:46.175Z,10.20
2019-03-22T22:51:17.904Z,11.77
2019-03-22T22:53:48.273Z,11.70
2019-03-22T22:56:18.219Z,8.77
2019-03-22T22:58:48.926Z,10.63
2019-03-22T23:01:18.882Z,11.87
2019-03-22T23:03:49.056Z,8.20
2019-03-22T23:06:19.903Z,9.90
2019-03-22T23:08:50.250Z,9.10
2019-03-22T23:11:20.288Z,8.33
2019-03-22T23:13:50.345Z,9.23
2019-03-22T23:16:20.309Z,7.73
2019-03-22T23:18:50.611Z,7.57
2019-03-22T23:21:21.231Z,9.10
2019-03-22T23:23:52.685Z,9.50
2019-03-22T23:26:22.708Z,10.47
2019-03-22T23:28:53.041Z,8.47
2019-03-22T23:31:23.149Z,9.37
2019-03-22T23:33:53.956Z,8.57
2019-03-22T23:36:24.302Z,8.13
2019-03-22T23:38:54.952Z,9.13
2019-03-22T23:41:24.914Z,8.83
2019-03-22T23:43:55.323Z,9.77
2019-03-22T23:46:25.394Z,14.10
2019-03-22T23:48:55.843Z,8.10
2019-03-22T23:51:26.182Z,32.50
2019-03-22T23:53:57.003Z,21.93
2019-03-22T23:56:27.309Z,16.97
2019-03-22T23:58:59.084Z,32.53
